KBIE/BIE METAR and TAF weather

Enter ICAO airport designator
Station Type Date Time Source
KBIE METAR 2022/08/13 12:35 UTC NOAA

KBIE 131235Z AUTO 19005KT 10SM CLR 22/16 A3004 RMK AO2 T02170164


Station Type Date Time Source
KBIE Decoded METAR 2022/08/13 12:35 UTC NOAA

Beatrice Municipal, NE, United States (KBIE) 40-18N 096-45W
Aug 13, 2022 - 08:35 AM EDT / 2022.08.13 1235 UTC
Wind: from the S (190 degrees) at 6 MPH (5 KT):0
Visibility: 10 mile(s):0
Sky conditions: clear
Temperature: 71.1 F (21.7 C)
Dew Point: 61.5 F (16.4 C)
Relative Humidity: 71%
Pressure (altimeter): 30.04 in. Hg (1017 hPa)
ob: KBIE 131235Z AUTO 19005KT 10SM CLR 22/16 A3004 RMK AO2 T02170164
cycle: 12

Station Type Date Time Source
KBIE TAF UTC NOAA

Error!

Example: see airport list